Time;durP1;ratioP1;P1;durP2;ratioP2;P2;SDS_P1;SDS_P2;PMS_P1;PMS_P2;Temp;Humidity;BMP_temperature;BMP_pressure;BME280_temperature;BME280_humidity;BME280_pressure;Samples;Min_cycle;Max_cycle;Signal;HPM_P1;HPM_P2
2022/12/17 13:06:38;;;;;;;16.77;11.18;;;-2.90;99.90;;;;;;5050401;28;20035;-36
2022/12/17 13:09:22;;;;;;;22.02;14.10;;;-2.90;99.90;;;;;;5037409;28;20040;-32
2022/12/17 13:11:49;;;;;;;19.00;10.63;;;-2.90;99.90;;;;;;5041989;28;20118;-37
2022/12/17 13:14:33;;;;;;;24.85;12.93;;;-2.90;99.90;;;;;;5036963;28;20063;-35
2022/12/17 13:17:03;;;;;;;24.00;15.02;;;-2.90;99.90;;;;;;5043824;28;20059;-33
2022/12/17 13:19:43;;;;;;;20.35;9.73;;;-2.90;99.90;;;;;;5041083;28;20022;-33
2022/12/17 13:22:10;;;;;;;24.88;12.25;;;-2.90;99.90;;;;;;5042261;28;20029;-36
2022/12/17 13:24:36;;;;;;;22.15;13.45;;;-3.00;99.90;;;;;;5043900;28;20037;-33
2022/12/17 13:27:02;;;;;;;17.65;12.07;;;-2.90;99.90;;;;;;5035546;28;20386;-34
2022/12/17 13:29:31;;;;;;;23.40;13.55;;;-3.00;99.90;;;;;;5036312;28;20033;-38
2022/12/17 13:31:57;;;;;;;20.42;12.35;;;-3.00;99.90;;;;;;5041511;28;20037;-37
2022/12/17 13:34:50;;;;;;;28.08;12.90;;;-3.10;99.90;;;;;;5040751;28;20099;-35
2022/12/17 13:37:27;;;;;;;22.75;12.77;;;-3.10;99.90;;;;;;5041612;28;20484;-35
2022/12/17 13:40:31;;;;;;;19.90;10.10;;;-3.20;99.90;;;;;;5039744;28;20037;-34
2022/12/17 13:42:57;;;;;;;15.00;10.43;;;-3.20;99.90;;;;;;5036501;28;20029;-36
2022/12/17 13:45:25;;;;;;;20.95;11.63;;;-3.20;99.90;;;;;;5039544;28;20393;-35
2022/12/17 13:47:58;;;;;;;21.52;12.60;;;-3.30;99.90;;;;;;5044898;28;20093;-37
2022/12/17 13:50:29;;;;;;;19.38;11.02;;;-3.20;99.90;;;;;;5042445;28;20084;-35
2022/12/17 13:52:55;;;;;;;16.10;10.50;;;-3.20;99.90;;;;;;5037531;28;20032;-36
2022/12/17 13:55:26;;;;;;;19.88;10.07;;;-3.30;99.90;;;;;;5041944;28;20041;-36
2022/12/17 13:57:52;;;;;;;17.35;10.10;;;-3.30;99.90;;;;;;5041122;28;20029;-33
2022/12/17 14:00:29;;;;;;;18.70;11.25;;;-3.30;99.90;;;;;;5036424;28;20052;-35
2022/12/17 14:02:55;;;;;;;16.05;10.55;;;-3.30;99.90;;;;;;5036165;28;20416;-34
2022/12/17 14:05:40;;;;;;;25.23;13.10;;;-3.50;99.90;;;;;;5039162;28;20029;-34
2022/12/17 14:08:06;;;;;;;19.85;11.65;;;-3.60;99.90;;;;;;5037880;28;20759;-33
2022/12/17 14:10:32;;;;;;;24.52;13.07;;;-3.60;99.90;;;;;;5043604;28;20062;-36
2022/12/17 14:13:04;;;;;;;23.45;13.25;;;-3.50;99.90;;;;;;5035532;28;20121;-34
2022/12/17 14:15:30;;;;;;;23.05;13.23;;;-3.50;99.90;;;;;;5042508;28;20040;-35
2022/12/17 14:17:58;;;;;;;22.48;11.93;;;-3.50;99.90;;;;;;5040399;28;20029;-37
2022/12/17 14:20:35;;;;;;;22.85;13.57;;;-3.60;99.90;;;;;;5039989;28;20039;-34
2022/12/17 14:23:05;;;;;;;25.25;15.13;;;-3.60;99.90;;;;;;5039035;28;20075;-32
2022/12/17 14:25:36;;;;;;;24.58;14.13;;;-3.60;99.90;;;;;;5038806;28;20588;-34
2022/12/17 14:28:22;;;;;;;22.48;12.25;;;-3.60;99.90;;;;;;5038857;28;20084;-36
2022/12/17 14:30:49;;;;;;;18.75;13.25;;;-3.60;99.90;;;;;;5035106;28;20458;-36
2022/12/17 14:33:33;;;;;;;19.10;11.88;;;-3.50;99.90;;;;;;5037832;28;20082;-36
2022/12/17 14:36:19;;;;;;;24.05;14.57;;;-3.50;99.90;;;;;;5043755;28;20043;-34
2022/12/17 14:38:50;;;;;;;18.45;11.73;;;-3.40;99.90;;;;;;5044069;28;20021;-37
2022/12/17 14:44:02;;;;;;;17.75;11.15;;;-3.40;99.90;;;;;;5043515;28;20121;-36
2022/12/17 14:46:29;;;;;;;21.52;13.30;;;-3.30;99.90;;;;;;5040867;28;20037;-35
2022/12/17 14:49:01;;;;;;;23.27;14.80;;;-3.30;99.90;;;;;;5052095;28;20029;-33
2022/12/17 14:51:34;;;;;;;21.75;11.77;;;-3.30;99.90;;;;;;5045327;28;20044;-34
2022/12/17 14:54:18;;;;;;;26.23;13.43;;;-3.30;99.90;;;;;;5041138;28;20413;-33
2022/12/17 14:56:46;;;;;;;19.73;13.25;;;-3.30;99.90;;;;;;5046175;28;21951;-36
2022/12/17 14:59:42;;;;;;;18.88;12.88;;;-3.30;99.90;;;;;;5041627;28;20042;-36
2022/12/17 15:02:07;;;;;;;22.70;12.93;;;-3.30;99.90;;;;;;5038475;28;20150;-36
2022/12/17 15:04:36;;;;;;;25.25;13.68;;;-3.30;99.90;;;;;;5039260;28;20021;-36
2022/12/17 15:07:02;;;;;;;;;;;-3.30;99.90;;;;;;5044481;28;20378;-35
2022/12/17 15:09:27;;;;;;;19.02;13.07;;;-3.30;99.90;;;;;;5043527;28;19920;-34
2022/12/17 15:11:53;;;;;;;14.82;10.38;;;-3.30;99.90;;;;;;5041278;28;20087;-33
2022/12/17 15:14:19;;;;;;;18.58;11.30;;;-3.30;99.90;;;;;;5040177;28;20112;-35
2022/12/17 15:16:45;;;;;;;20.15;12.55;;;-3.30;99.90;;;;;;5037408;28;20167;-37
2022/12/17 15:19:10;;;;;;;15.30;12.27;;;-3.30;99.90;;;;;;5047810;28;20049;-34
2022/12/17 15:21:36;;;;;;;28.05;16.25;;;-3.30;99.90;;;;;;5044429;28;20061;-34
2022/12/17 15:24:02;;;;;;;23.48;13.77;;;-3.30;99.90;;;;;;5030385;28;20481;-34
2022/12/17 15:26:28;;;;;;;24.58;13.15;;;-3.40;99.90;;;;;;5047933;28;20033;-33
2022/12/17 15:28:53;;;;;;;26.92;14.20;;;-3.40;99.90;;;;;;5046742;28;20077;-32
2022/12/17 15:31:19;;;;;;;26.48;16.50;;;-3.40;99.90;;;;;;5040082;28;20116;-36
2022/12/17 15:33:44;;;;;;;21.00;14.35;;;-3.50;99.90;;;;;;5045241;28;20040;-33
2022/12/17 15:36:11;;;;;;;32.20;16.38;;;-3.70;99.90;;;;;;5045345;28;20029;-35
2022/12/17 15:38:36;;;;;;;23.40;14.98;;;-3.70;99.90;;;;;;5050602;28;20044;-35
2022/12/17 15:43:48;;;;;;;26.55;13.48;;;-3.70;99.90;;;;;;5045510;28;20792;-35
2022/12/17 15:46:14;;;;;;;27.95;17.05;;;-3.70;99.90;;;;;;5043297;28;20421;-32
2022/12/17 15:48:39;;;;;;;30.02;15.02;;;-3.80;99.90;;;;;;5051902;28;20095;-36
2022/12/17 15:51:05;;;;;;;16.02;11.95;;;-3.70;99.90;;;;;;5041323;28;20079;-37
2022/12/17 15:53:31;;;;;;;16.67;9.60;;;-3.80;99.90;;;;;;5041496;28;20029;-33
2022/12/17 15:56:00;;;;;;;25.15;16.10;;;-3.90;99.90;;;;;;5043940;28;20207;-33
2022/12/17 15:58:26;;;;;;;18.80;11.88;;;-4.00;99.90;;;;;;5048257;28;20035;-36
2022/12/17 16:00:51;;;;;;;25.13;12.82;;;-4.00;99.90;;;;;;5037793;28;20029;-37
2022/12/17 16:03:17;;;;;;;20.10;11.25;;;-4.00;99.90;;;;;;5045921;28;20052;-33
2022/12/17 16:05:43;;;;;;;16.38;10.25;;;-4.10;99.90;;;;;;5042651;28;20466;-36
2022/12/17 16:08:08;;;;;;;18.48;13.23;;;-4.20;99.90;;;;;;5040809;28;20112;-35
2022/12/17 16:10:34;;;;;;;22.42;13.82;;;-4.30;99.90;;;;;;5038914;28;20045;-35
2022/12/17 16:13:00;;;;;;;26.55;13.70;;;-4.40;99.90;;;;;;5048810;28;20033;-32
2022/12/17 16:15:25;;;;;;;23.38;13.25;;;-4.60;99.90;;;;;;5041634;28;20033;-31
2022/12/17 16:17:51;;;;;;;23.20;11.52;;;-4.70;99.90;;;;;;5044069;28;20025;-34
2022/12/17 16:20:16;;;;;;;19.02;12.45;;;-4.70;99.90;;;;;;5039355;28;20109;-34
2022/12/17 16:22:43;;;;;;;29.02;13.98;;;-4.60;99.90;;;;;;5040692;28;20033;-36
2022/12/17 16:25:09;;;;;;;25.63;14.30;;;-4.60;99.90;;;;;;5043090;28;20033;-33
2022/12/17 16:27:34;;;;;;;19.77;12.70;;;-4.60;99.90;;;;;;5045116;28;20049;-32
2022/12/17 16:30:00;;;;;;;29.27;14.15;;;-4.60;99.90;;;;;;5045228;28;20040;-33
2022/12/17 16:32:25;;;;;;;29.38;15.57;;;-4.70;99.90;;;;;;5038236;28;20068;-36
2022/12/17 16:34:51;;;;;;;22.48;13.30;;;-4.80;99.90;;;;;;5045180;28;20030;-34
2022/12/17 16:37:17;;;;;;;19.85;12.23;;;-4.70;99.90;;;;;;5040651;28;20104;-34
2022/12/17 16:39:43;;;;;;;20.83;14.93;;;-4.70;99.90;;;;;;5046063;28;20043;-36
2022/12/17 16:42:10;;;;;;;21.80;11.77;;;-4.80;99.90;;;;;;5037988;28;20029;-32
2022/12/17 16:44:35;;;;;;;19.08;11.93;;;-4.70;99.90;;;;;;5040769;28;20092;-34
2022/12/17 16:47:01;;;;;;;27.23;13.60;;;-4.80;99.90;;;;;;5044189;28;20021;-35
2022/12/17 16:49:26;;;;;;;17.73;12.48;;;-4.90;99.90;;;;;;5043550;28;20037;-32
2022/12/17 16:51:54;;;;;;;22.05;11.93;;;-4.90;99.90;;;;;;5039605;28;20076;-32
2022/12/17 16:54:22;;;;;;;20.33;12.38;;;-5.00;99.90;;;;;;5041869;28;20079;-36
2022/12/17 16:56:48;;;;;;;13.05;11.63;;;-5.60;99.90;;;;;;5042465;28;20025;-33
2022/12/17 16:59:15;;;;;;;15.63;10.23;;;-5.90;99.90;;;;;;5040734;28;20041;-35
2022/12/17 17:01:46;;;;;;;18.80;10.10;;;-5.90;99.90;;;;;;5037621;28;20083;-36
2022/12/17 17:04:13;;;;;;;12.35;8.45;;;-5.80;99.90;;;;;;5046193;28;20021;-35
2022/12/17 17:06:53;;;;;;;16.55;12.32;;;-5.80;99.90;;;;;;5040983;28;20036;-31
2022/12/17 17:09:19;;;;;;;22.42;14.15;;;-5.70;99.90;;;;;;5044614;28;20031;-33
2022/12/17 17:11:45;;;;;;;13.82;11.35;;;-5.70;99.90;;;;;;5033579;28;20033;-36
2022/12/17 17:14:11;;;;;;;21.85;9.55;;;-5.50;99.90;;;;;;5045767;28;20029;-31
2022/12/17 17:16:37;;;;;;;16.20;8.68;;;-5.50;99.90;;;;;;5040911;28;20090;-33
2022/12/17 17:19:04;;;;;;;13.00;8.13;;;-5.50;99.90;;;;;;5042578;28;20041;-35
2022/12/17 17:21:33;;;;;;;9.77;7.75;;;-5.60;99.90;;;;;;5036927;28;20029;-32
2022/12/17 17:24:00;;;;;;;;;;;-5.60;99.90;;;;;;5046823;28;20017;-32
2022/12/17 17:26:31;;;;;;;10.00;7.57;;;-5.70;99.90;;;;;;5038129;28;20285;-33
2022/12/17 17:28:57;;;;;;;10.93;8.60;;;-5.70;99.90;;;;;;5041157;28;20107;-32
2022/12/17 17:31:23;;;;;;;15.02;10.23;;;-5.80;99.90;;;;;;5036906;28;20041;-35
2022/12/17 17:33:50;;;;;;;11.93;10.05;;;-6.00;99.90;;;;;;5038304;28;20108;-34
2022/12/17 17:36:27;;;;;;;15.35;9.82;;;-5.90;99.90;;;;;;5039880;28;20057;-35
2022/12/17 17:38:58;;;;;;;13.65;10.32;;;-6.00;99.90;;;;;;5037985;28;20040;-35
2022/12/17 17:41:27;;;;;;;12.57;10.38;;;-6.00;99.90;;;;;;5040587;28;20359;-34
2022/12/17 17:43:58;;;;;;;15.07;10.30;;;-6.00;99.90;;;;;;5039657;28;20037;-35
2022/12/17 17:46:26;;;;;;;15.85;7.95;;;-5.90;99.90;;;;;;5041597;28;20136;-35
2022/12/17 17:48:56;;;;;;;12.35;7.68;;;-6.20;99.90;;;;;;5042539;28;20036;-33
2022/12/17 17:51:23;;;;;;;12.32;10.07;;;-6.10;99.90;;;;;;5043252;28;20035;-33
2022/12/17 17:53:51;;;;;;;13.38;10.18;;;-6.20;99.90;;;;;;5035807;28;20045;-33
2022/12/17 17:56:19;;;;;;;10.00;7.73;;;-6.50;99.90;;;;;;5039796;28;20127;-34
2022/12/17 17:58:48;;;;;;;12.52;8.35;;;-6.70;99.90;;;;;;5042141;28;20143;-33
2022/12/17 18:01:22;;;;;;;1.77;1.77;;;-7.60;99.90;;;;;;5039774;28;20030;-33
2022/12/17 18:03:49;;;;;;;2.58;2.42;;;-8.20;99.90;;;;;;5040101;28;20033;-34
2022/12/17 18:06:15;;;;;;;11.38;8.85;;;-8.50;99.90;;;;;;5043581;28;20036;-33
2022/12/17 18:08:42;;;;;;;13.93;10.63;;;-8.10;99.90;;;;;;5037559;28;20043;-36
2022/12/17 18:11:13;;;;;;;11.25;7.28;;;-7.70;99.90;;;;;;5047146;28;20024;-34
2022/12/17 18:13:54;;;;;;;2.33;2.28;;;-7.40;99.90;;;;;;5037079;28;20401;-31
2022/12/17 18:16:40;;;;;;;12.60;9.27;;;-7.40;99.90;;;;;;5038456;28;20029;-33
2022/12/17 18:19:15;;;;;;;8.73;4.85;;;-7.40;99.90;;;;;;5038938;28;20116;-33
2022/12/17 18:21:41;;;;;;;2.67;2.58;;;-7.60;99.90;;;;;;5040727;28;20036;-34
2022/12/17 18:24:11;;;;;;;6.97;5.45;;;-7.90;99.90;;;;;;5041594;28;20032;-32
2022/12/17 18:26:41;;;;;;;3.28;3.17;;;-7.90;99.90;;;;;;5047527;28;20033;-35
2022/12/17 18:29:19;;;;;;;2.70;2.65;;;-8.10;99.90;;;;;;5041077;28;20057;-36
2022/12/17 18:31:45;;;;;;;5.70;4.63;;;-8.50;99.90;;;;;;5037517;28;20536;-33
2022/12/17 18:34:16;;;;;;;11.65;7.25;;;-8.50;99.90;;;;;;5042167;28;20029;-33
2022/12/17 18:36:43;;;;;;;11.88;7.18;;;-8.30;99.90;;;;;;5036298;28;20033;-32
2022/12/17 18:39:21;;;;;;;8.18;7.47;;;-8.10;99.90;;;;;;5043590;28;20116;-35
2022/12/17 18:44:34;;;;;;;7.13;6.50;;;-8.20;99.90;;;;;;5036988;28;20099;-33
2022/12/17 18:47:00;;;;;;;;;;;-8.50;99.90;;;;;;5045512;28;20021;-33
2022/12/17 18:49:26;;;;;;;7.22;6.57;;;-8.50;99.90;;;;;;5047144;28;19935;-35
2022/12/17 18:51:53;;;;;;;16.38;9.00;;;-8.20;99.90;;;;;;5040071;28;20113;-32
2022/12/17 18:54:24;;;;;;;14.48;12.32;;;-8.10;99.90;;;;;;5037222;28;20025;-35
2022/12/17 18:56:51;;;;;;;17.92;9.90;;;-8.20;99.90;;;;;;5041416;28;20517;-36
2022/12/17 18:59:19;;;;;;;20.33;11.95;;;-8.10;99.90;;;;;;5039331;28;20033;-34
2022/12/17 19:01:46;;;;;;;13.48;11.73;;;-8.00;99.90;;;;;;5047356;28;20567;-33
2022/12/17 19:04:13;;;;;;;26.05;15.68;;;-8.00;99.90;;;;;;5039328;28;20508;-33
2022/12/17 19:06:41;;;;;;;7.60;6.23;;;-8.00;99.90;;;;;;5040209;28;20029;-32
2022/12/17 19:09:14;;;;;;;27.88;15.43;;;-7.90;99.90;;;;;;5038522;28;20501;-35
2022/12/17 19:11:39;;;;;;;19.35;14.02;;;-7.70;99.90;;;;;;5039051;28;20041;-33
2022/12/17 19:14:05;;;;;;;13.75;9.45;;;-7.60;99.90;;;;;;5043018;28;20037;-36
2022/12/17 19:16:31;;;;;;;17.33;12.60;;;-7.50;99.90;;;;;;5040761;28;20032;-32
2022/12/17 19:19:01;;;;;;;11.23;10.18;;;-7.50;99.90;;;;;;5042419;28;20021;-33
2022/12/17 19:21:29;;;;;;;21.80;12.30;;;-7.50;99.90;;;;;;5042180;28;20040;-32
2022/12/17 19:24:00;;;;;;;11.15;9.77;;;-7.50;99.90;;;;;;5044153;28;20029;-31
2022/12/17 19:26:26;;;;;;;8.57;6.00;;;-7.70;99.90;;;;;;5051025;28;20029;-32
2022/12/17 19:28:53;;;;;;;13.07;8.88;;;-7.70;99.90;;;;;;5046608;28;20037;-32
2022/12/17 19:31:21;;;;;;;16.60;12.50;;;-7.60;99.90;;;;;;5052243;28;20041;-36
2022/12/17 19:33:47;;;;;;;12.20;10.57;;;-7.70;99.90;;;;;;5047345;28;20036;-34
2022/12/17 19:36:17;;;;;;;30.65;16.15;;;-7.60;99.90;;;;;;5044315;28;20045;-34
2022/12/17 19:38:44;;;;;;;21.00;16.45;;;-7.50;99.90;;;;;;5039874;28;20414;-32
2022/12/17 19:41:15;;;;;;;30.20;14.88;;;-7.50;99.90;;;;;;5048105;28;20763;-33
2022/12/17 19:43:42;;;;;;;20.63;15.07;;;-7.50;99.90;;;;;;5040473;28;20048;-31
2022/12/17 19:46:13;;;;;;;42.25;13.98;;;-7.40;99.90;;;;;;5039823;28;20029;-34
2022/12/17 19:48:40;;;;;;;19.73;12.25;;;-7.40;99.90;;;;;;5042271;28;20386;-32
2022/12/17 19:51:08;;;;;;;21.05;15.85;;;-7.30;99.90;;;;;;5039616;28;20112;-31
2022/12/17 19:53:35;;;;;;;12.35;11.07;;;-7.20;99.90;;;;;;5038848;28;20025;-32
2022/12/17 19:56:18;;;;;;;21.05;12.18;;;-7.20;99.90;;;;;;5038219;28;20021;-34
2022/12/17 19:58:45;;;;;;;21.20;12.90;;;-7.20;99.90;;;;;;5039685;28;20036;-31
2022/12/17 20:01:17;;;;;;;23.55;14.20;;;-7.10;99.90;;;;;;5039206;28;20053;-31
2022/12/17 20:03:44;;;;;;;11.25;8.90;;;-7.10;99.90;;;;;;5039733;28;20607;-32
2022/12/17 20:06:12;;;;;;;22.40;16.70;;;-7.00;99.90;;;;;;5041940;28;20033;-34
2022/12/17 20:08:38;;;;;;;24.35;14.05;;;-6.90;99.90;;;;;;5043877;28;20091;-36
2022/12/17 20:14:17;;;;;;;30.45;16.25;;;-6.80;99.90;;;;;;5045469;28;20129;-33
2022/12/17 20:16:48;;;;;;;20.13;11.52;;;-6.70;99.90;;;;;;5029659;28;20047;-32
2022/12/17 20:19:19;;;;;;;27.00;16.05;;;-6.60;99.90;;;;;;5042342;28;20134;-31
2022/12/17 20:21:45;;;;;;;16.60;10.32;;;-6.60;99.90;;;;;;5053474;28;20108;-35
2022/12/17 20:24:12;;;;;;;12.88;10.18;;;-6.50;99.90;;;;;;5041879;28;20120;-32
2022/12/17 20:26:38;;;;;;;16.05;10.23;;;-6.50;99.90;;;;;;5039328;28;20032;-32
2022/12/17 20:29:04;;;;;;;32.92;16.27;;;-6.40;99.90;;;;;;5042476;28;20049;-32
2022/12/17 20:31:31;;;;;;;24.48;14.25;;;-6.30;99.90;;;;;;5035189;28;20022;-35
2022/12/17 20:34:02;;;;;;;27.80;13.25;;;-6.30;99.90;;;;;;5043313;28;20060;-35
2022/12/17 20:36:28;;;;;;;7.15;6.00;;;-6.20;99.90;;;;;;5038852;28;20447;-36
2022/12/17 20:38:53;;;;;;;24.23;14.27;;;-6.20;99.90;;;;;;5046367;28;20035;-35
2022/12/17 20:41:24;;;;;;;31.02;18.02;;;-6.20;99.90;;;;;;5043180;28;20034;-31
2022/12/17 20:43:51;;;;;;;16.30;9.35;;;-6.10;99.90;;;;;;5042457;28;20032;-32
2022/12/17 20:46:18;;;;;;;23.38;12.48;;;-6.10;99.90;;;;;;5039657;28;20037;-34
2022/12/17 20:48:44;;;;;;;25.98;13.30;;;-6.10;99.90;;;;;;5046884;28;20062;-31
2022/12/17 20:51:30;;;;;;;26.88;15.05;;;-6.10;99.90;;;;;;5043223;28;20040;-32
2022/12/17 20:53:58;;;;;;;30.30;14.23;;;-6.00;99.90;;;;;;5036943;28;20174;-35
2022/12/17 20:56:27;;;;;;;31.92;14.45;;;-6.00;99.90;;;;;;5039615;28;20043;-32
2022/12/17 20:58:54;;;;;;;20.88;14.40;;;-6.00;99.90;;;;;;5044506;28;20033;-33
2022/12/17 21:01:22;;;;;;;15.68;13.48;;;-6.00;99.90;;;;;;5037352;28;20033;-33
2022/12/17 21:03:49;;;;;;;24.20;16.25;;;-6.00;99.90;;;;;;5037996;28;20435;-33
2022/12/17 21:06:16;;;;;;;24.67;16.10;;;-5.90;99.90;;;;;;5039231;28;20104;-32
2022/12/17 21:08:43;;;;;;;29.80;18.45;;;-5.90;99.90;;;;;;5044175;28;20028;-31
2022/12/17 21:11:10;;;;;;;47.83;24.50;;;-5.80;99.90;;;;;;5042568;28;20032;-34
2022/12/17 21:13:36;;;;;;;31.52;14.38;;;-5.60;99.90;;;;;;5044249;28;20037;-33
2022/12/17 21:16:14;;;;;;;34.38;14.60;;;-5.70;99.90;;;;;;5038543;28;20025;-34
2022/12/17 21:18:40;;;;;;;20.17;13.27;;;-5.70;99.90;;;;;;5042731;28;20040;-34
2022/12/17 21:21:09;;;;;;;24.60;16.75;;;-5.50;99.90;;;;;;5036715;28;20120;-34
2022/12/17 21:23:36;;;;;;;31.52;15.35;;;-5.50;99.90;;;;;;5043818;28;20029;-34
2022/12/17 21:26:08;;;;;;;16.65;9.82;;;-5.30;99.90;;;;;;5043588;28;20036;-31
2022/12/17 21:28:35;;;;;;;28.02;13.68;;;-5.30;99.90;;;;;;5045714;28;20092;-33
2022/12/17 21:31:02;;;;;;;20.65;10.55;;;-5.30;99.90;;;;;;5036212;28;20032;-34
2022/12/17 21:33:28;;;;;;;33.45;16.38;;;-5.20;99.90;;;;;;5045317;28;20052;-34
2022/12/17 21:36:02;;;;;;;23.17;13.30;;;-5.10;99.90;;;;;;5039457;28;20037;-31
2022/12/17 21:38:28;;;;;;;12.30;9.65;;;-5.20;99.90;;;;;;5046939;28;20031;-36
2022/12/17 21:40:55;;;;;;;27.92;15.85;;;-5.10;99.90;;;;;;5036543;28;20245;-33
2022/12/17 21:43:21;;;;;;;17.35;11.68;;;-4.90;99.90;;;;;;5036170;28;20389;-34
2022/12/17 21:45:47;;;;;;;27.27;15.30;;;-4.90;99.90;;;;;;5038559;28;20033;-36
2022/12/17 21:48:12;;;;;;;33.53;14.75;;;-4.80;99.90;;;;;;5039598;28;20028;-32
2022/12/17 21:50:44;;;;;;;43.42;17.90;;;-4.90;99.90;;;;;;5036902;28;20061;-33
2022/12/17 21:53:11;;;;;;;33.95;14.98;;;-5.10;99.90;;;;;;5043059;28;20033;-35
2022/12/17 21:55:37;;;;;;;26.23;16.58;;;-5.10;99.90;;;;;;5041642;28;20033;-35
2022/12/17 21:58:03;;;;;;;16.50;11.25;;;-5.20;99.90;;;;;;5037287;28;20031;-33
2022/12/17 22:00:29;;;;;;;30.73;15.07;;;-5.00;99.90;;;;;;5040633;28;20439;-31
2022/12/17 22:02:54;;;;;;;33.70;15.82;;;-5.00;99.90;;;;;;5039178;28;20573;-35
2022/12/17 22:05:20;;;;;;;20.10;13.63;;;-4.90;99.90;;;;;;5039785;28;20059;-34
2022/12/17 22:07:46;;;;;;;19.23;12.07;;;-4.90;99.90;;;;;;5041383;28;20037;-34
2022/12/17 22:10:12;;;;;;;25.63;13.57;;;-4.80;99.90;;;;;;5040798;28;20048;-32
2022/12/17 22:15:22;;;;;;;28.88;15.88;;;-4.70;99.90;;;;;;5039999;28;20032;-32
2022/12/17 22:17:47;;;;;;;28.17;14.57;;;-4.70;99.90;;;;;;5037930;28;20021;-34
2022/12/17 22:20:15;;;;;;;42.58;20.42;;;-4.80;99.90;;;;;;5040267;28;20034;-33
2022/12/17 22:22:41;;;;;;;43.95;17.83;;;-4.80;99.90;;;;;;5039631;28;20124;-32
2022/12/17 22:25:08;;;;;;;43.97;20.70;;;-4.90;99.90;;;;;;5039272;28;20033;-36
2022/12/17 22:27:34;;;;;;;53.53;20.65;;;-5.00;99.90;;;;;;5040758;28;20041;-34
2022/12/17 22:33:02;;;;;;;50.03;19.55;;;-5.10;99.90;;;;;;5038252;28;20101;-32
2022/12/17 22:35:33;;;;;;;50.53;21.25;;;-5.10;99.90;;;;;;5043743;28;20043;-32
2022/12/17 22:37:59;;;;;;;31.65;17.63;;;-5.00;99.90;;;;;;5039860;28;20037;-33
2022/12/17 22:40:25;;;;;;;21.15;11.82;;;-5.00;99.90;;;;;;5033679;28;20036;-35
2022/12/17 22:45:40;;;;;;;31.75;16.17;;;-5.00;99.90;;;;;;5047392;28;20636;-35
2022/12/17 22:48:07;;;;;;;29.58;13.02;;;-5.00;99.90;;;;;;5042649;28;20067;-32
2022/12/17 22:50:33;;;;;;;27.67;15.70;;;-5.00;99.90;;;;;;5041969;28;20387;-34
2022/12/17 22:52:58;;;;;;;38.25;18.27;;;-4.90;99.90;;;;;;5045668;28;20078;-36
2022/12/17 22:55:24;;;;;;;24.48;15.98;;;-4.90;99.90;;;;;;5038063;28;20037;-32
2022/12/17 22:57:49;;;;;;;24.77;14.27;;;-4.90;99.90;;;;;;5038895;28;20509;-35
2022/12/17 23:00:24;;;;;;;43.15;17.10;;;-4.80;99.90;;;;;;5051389;28;20029;-36
2022/12/17 23:02:54;;;;;;;32.15;14.50;;;-4.80;99.90;;;;;;5042727;28;20095;-34
2022/12/17 23:05:23;;;;;;;33.90;16.23;;;-4.80;99.90;;;;;;5041364;28;20220;-33
2022/12/17 23:07:50;;;;;;;25.38;12.85;;;-4.80;99.90;;;;;;5045079;28;20028;-35
2022/12/17 23:10:16;;;;;;;39.65;15.82;;;-4.80;99.90;;;;;;5050338;28;20429;-35
2022/12/17 23:12:55;;;;;;;34.33;15.18;;;-4.80;99.90;;;;;;5041894;28;20035;-38
2022/12/17 23:15:33;;;;;;;30.77;14.75;;;-4.80;99.90;;;;;;5058116;28;20033;-33
2022/12/17 23:18:00;;;;;;;;;;;-4.80;99.90;;;;;;5042569;28;20033;-35
2022/12/17 23:20:28;;;;;;;23.58;9.50;;;-4.70;99.90;;;;;;5041493;28;20465;-34
2022/12/17 23:22:54;;;;;;;36.42;17.23;;;-4.60;99.90;;;;;;5047040;28;20090;-34
2022/12/17 23:25:20;;;;;;;44.70;18.40;;;-4.70;99.90;;;;;;5049803;28;20520;-34
2022/12/17 23:27:46;;;;;;;43.40;16.95;;;-4.70;99.90;;;;;;5043832;28;20048;-35
2022/12/17 23:30:13;;;;;;;49.25;17.60;;;-4.80;99.90;;;;;;5046244;28;20389;-34
2022/12/17 23:32:39;;;;;;;29.10;15.75;;;-4.80;99.90;;;;;;5038224;28;20448;-34
2022/12/17 23:35:06;;;;;;;46.30;19.67;;;-4.80;99.90;;;;;;5048348;28;20048;-33
2022/12/17 23:37:31;;;;;;;38.75;17.13;;;-4.80;99.90;;;;;;5046155;28;20028;-31
2022/12/17 23:39:57;;;;;;;39.42;17.00;;;-4.90;99.90;;;;;;5043634;28;20013;-34
2022/12/17 23:42:22;;;;;;;52.95;22.30;;;-4.80;99.90;;;;;;5042045;28;20079;-34
2022/12/17 23:44:48;;;;;;;36.15;15.80;;;-4.90;99.90;;;;;;5041620;28;20082;-31
2022/12/17 23:47:14;;;;;;;39.00;16.85;;;-4.90;99.90;;;;;;5052025;28;20029;-35
2022/12/17 23:49:39;;;;;;;27.10;13.73;;;-4.90;99.90;;;;;;5045501;28;20124;-33
2022/12/17 23:52:05;;;;;;;14.75;9.43;;;-4.80;99.90;;;;;;5048305;28;20473;-35
2022/12/17 23:54:30;;;;;;;24.95;14.40;;;-4.70;99.90;;;;;;5044032;28;20385;-33
2022/12/17 23:56:56;;;;;;;25.38;14.40;;;-4.60;99.90;;;;;;5053954;28;20037;-35
2022/12/17 23:59:22;;;;;;;34.00;13.90;;;-4.70;99.90;;;;;;5041951;28;20104;-33
